Time;durP1;ratioP1;P1;durP2;ratioP2;P2;SDS_P1;SDS_P2;PMS_P1;PMS_P2;Temp;Humidity;BMP_temperature;BMP_pressure;BME280_temperature;BME280_humidity;BME280_pressure;Samples;Min_cycle;Max_cycle;Signal;HPM_P1;HPM_P2
2023/07/05 00:01:37;;;;;;;9.60;5.13;;;;;;;14.65;100.00;100288.22;4979417;28;20386;-82
2023/07/05 00:04:03;;;;;;;8.33;4.60;;;;;;;14.64;100.00;100275.63;4979430;28;20058;-82
2023/07/05 00:06:28;;;;;;;14.07;4.85;;;;;;;14.63;100.00;100265.81;4996202;28;20100;-82
2023/07/05 00:08:53;;;;;;;11.33;4.50;;;;;;;14.62;100.00;100257.88;4963415;28;20390;-82
2023/07/05 00:11:19;;;;;;;6.93;4.77;;;;;;;14.64;100.00;100251.06;4996925;28;20102;-82
2023/07/05 00:13:44;;;;;;;8.10;4.37;;;;;;;14.62;100.00;100250.50;4997139;28;20038;-82
2023/07/05 00:16:11;;;;;;;8.38;4.15;;;;;;;14.59;100.00;100244.72;4947099;28;20391;-82
2023/07/05 00:18:37;;;;;;;7.17;3.83;;;;;;;14.60;100.00;100228.09;4996817;28;20034;-82
2023/07/05 00:21:05;;;;;;;8.13;3.97;;;;;;;14.63;100.00;100218.56;4963589;28;20037;-82
2023/07/05 00:23:33;;;;;;;8.23;4.15;;;;;;;14.65;100.00;100200.03;4996418;28;20037;-82
2023/07/05 00:25:59;;;;;;;6.28;3.75;;;;;;;14.66;100.00;100199.78;4996647;28;20521;-82
2023/07/05 00:28:24;;;;;;;7.73;3.67;;;;;;;14.65;100.00;100200.84;4996552;28;20030;-82
2023/07/05 00:30:50;;;;;;;7.10;3.80;;;;;;;14.61;100.00;100188.78;4996529;28;20133;-82
2023/07/05 00:33:15;;;;;;;5.93;3.70;;;;;;;14.53;100.00;100181.88;4963073;28;20454;-82
2023/07/05 00:35:59;;;;;;;5.90;3.27;;;;;;;14.55;100.00;100163.31;4978829;28;20541;-82
2023/07/05 00:38:25;;;;;;;11.23;3.70;;;;;;;14.59;100.00;100132.78;4962909;28;20042;-82
2023/07/05 00:40:51;;;;;;;7.03;3.60;;;;;;;14.60;100.00;100124.34;4963759;28;20084;-82
2023/07/05 00:43:19;;;;;;;8.02;4.40;;;;;;;14.59;100.00;100133.59;4962793;28;20026;-82
2023/07/05 00:45:56;;;;;;;8.35;3.88;;;;;;;14.54;100.00;100158.13;4995016;28;20065;-82
2023/07/05 00:48:36;;;;;;;6.80;3.73;;;;;;;14.48;100.00;100151.81;4995901;28;20149;-82
2023/07/05 00:51:16;;;;;;;8.15;3.80;;;;;;;14.49;100.00;100169.00;4995216;28;20026;-82
2023/07/05 00:53:42;;;;;;;9.98;3.90;;;;;;;14.47;100.00;100144.69;4978450;28;20027;-82
2023/07/05 00:56:28;;;;;;;7.23;3.23;;;;;;;14.46;100.00;100143.03;4979450;28;20053;-82
2023/07/05 00:58:56;;;;;;;8.27;3.47;;;;;;;14.46;100.00;100143.03;4977864;28;20293;-82
2023/07/05 01:01:22;;;;;;;9.60;3.67;;;;;;;14.43;100.00;100135.38;4996476;28;20085;-82
2023/07/05 01:03:52;;;;;;;8.13;3.80;;;;;;;14.47;100.00;100130.22;4995849;28;20038;-82
2023/07/05 01:06:22;;;;;;;7.03;3.93;;;;;;;14.47;100.00;100119.31;4978805;28;20792;-82
2023/07/05 01:08:49;;;;;;;5.75;3.50;;;;;;;14.49;100.00;100117.13;4978290;28;20483;-82
2023/07/05 01:11:25;;;;;;;5.78;3.45;;;;;;;14.48;100.00;100118.22;4994282;28;20038;-82
2023/07/05 01:14:04;;;;;;;5.95;3.90;;;;;;;14.48;100.00;100126.41;4995406;28;20391;-82
2023/07/05 01:16:36;;;;;;;8.70;3.30;;;;;;;14.48;100.00;100123.66;4977993;28;20068;-82
2023/07/05 01:19:14;;;;;;;7.37;3.80;;;;;;;14.48;100.00;100112.75;4977954;28;20042;-82
2023/07/05 01:21:48;;;;;;;8.13;3.50;;;;;;;14.50;100.00;100118.78;4978229;28;20040;-82
2023/07/05 01:24:48;;;;;;;8.07;3.53;;;;;;;14.52;100.00;100117.44;4994671;28;20478;-82
2023/07/05 01:27:43;;;;;;;9.35;3.65;;;;;;;14.54;100.00;100123.47;4995233;28;20548;-82
2023/07/05 01:30:26;;;;;;;5.07;3.70;;;;;;;14.63;100.00;100136.66;4995720;28;20030;-82
2023/07/05 01:32:58;;;;;;;6.00;3.10;;;;;;;14.60;100.00;100132.53;4995515;28;20030;-82
2023/07/05 01:35:29;;;;;;;7.05;3.40;;;;;;;14.56;100.00;100128.66;4994158;28;20035;-82
2023/07/05 01:37:55;;;;;;;7.32;3.47;;;;;;;14.53;100.00;100138.19;4994626;28;20038;-82
2023/07/05 01:40:21;;;;;;;5.13;3.60;;;;;;;14.54;100.00;100139.00;4978352;28;20031;-82
2023/07/05 01:42:52;;;;;;;5.60;2.95;;;;;;;14.54;100.00;100142.56;4977390;28;20038;-82
2023/07/05 01:45:34;;;;;;;4.70;3.05;;;;;;;14.55;100.00;100137.94;4978011;28;20038;-82
2023/07/05 01:48:22;;;;;;;6.67;2.87;;;;;;;14.50;100.00;100141.44;4995335;28;20034;-82
2023/07/05 01:50:54;;;;;;;4.68;3.00;;;;;;;14.46;100.00;100147.69;4965181;28;20121;-83
2023/07/05 01:53:52;;;;;;;5.75;3.17;;;;;;;14.37;100.00;100156.31;4977885;28;20022;-82
2023/07/05 01:56:21;;;;;;;6.55;2.90;;;;;;;14.34;100.00;100154.09;4977554;28;20054;-82
2023/07/05 01:58:51;;;;;;;4.82;2.80;;;;;;;14.31;100.00;100164.72;4995477;28;20034;-82
2023/07/05 02:01:18;;;;;;;4.93;2.90;;;;;;;14.27;100.00;100175.31;4993826;28;20026;-82
2023/07/05 02:03:49;;;;;;;5.03;2.92;;;;;;;14.21;100.00;100182.63;4994556;28;20050;-82
2023/07/05 02:06:16;;;;;;;7.75;2.50;;;;;;;14.12;100.00;100191.53;4994913;28;20064;-82
2023/07/05 02:08:43;;;;;;;2.83;1.95;;;;;;;13.95;100.00;100210.66;4994667;28;20042;-82
2023/07/05 02:11:08;;;;;;;2.85;1.58;;;;;;;13.86;100.00;100265.66;4994567;28;20088;-82
2023/07/05 02:13:33;;;;;;;2.03;1.40;;;;;;;13.55;100.00;100247.22;4977247;28;20391;-83
2023/07/05 02:15:59;;;;;;;2.17;1.20;;;;;;;13.43;100.00;100233.69;4961321;28;20042;-82
2023/07/05 02:18:26;;;;;;;5.30;1.77;;;;;;;13.38;100.00;100225.44;4945232;28;20026;-82
2023/07/05 02:20:51;;;;;;;3.90;1.38;;;;;;;13.36;100.00;100244.75;4993350;28;20503;-82
2023/07/05 02:23:17;;;;;;;3.80;1.58;;;;;;;13.28;100.00;100232.31;4977131;28;20030;-82
2023/07/05 02:25:43;;;;;;;3.03;1.87;;;;;;;13.15;100.00;100236.22;4993255;28;20431;-82
2023/07/05 02:28:09;;;;;;;2.35;2.00;;;;;;;13.08;100.00;100240.16;4960904;28;20034;-82
2023/07/05 02:30:36;;;;;;;8.63;2.27;;;;;;;13.06;100.00;100242.31;4961422;28;20042;-82
2023/07/05 02:33:02;;;;;;;4.15;1.65;;;;;;;13.00;100.00;100257.75;4994468;28;20026;-82
2023/07/05 02:35:27;;;;;;;2.97;2.00;;;;;;;13.04;100.00;100266.25;4976997;28;20037;-82
2023/07/05 02:37:52;;;;;;;2.42;1.88;;;;;;;12.99;100.00;100265.09;4944956;28;20041;-82
2023/07/05 02:40:18;;;;;;;4.53;2.00;;;;;;;12.93;100.00;100268.81;4960657;28;20442;-82
2023/07/05 02:42:43;;;;;;;3.30;1.93;;;;;;;12.84;100.00;100267.53;4977209;28;20054;-82
2023/07/05 02:45:09;;;;;;;3.47;2.10;;;;;;;12.73;100.00;100263.81;4944817;28;20060;-82
2023/07/05 02:47:34;;;;;;;4.40;2.45;;;;;;;12.70;100.00;100263.47;4976773;28;20031;-82
2023/07/05 02:50:00;;;;;;;6.40;2.50;;;;;;;12.68;100.00;100261.00;4976645;28;20551;-82
2023/07/05 02:52:26;;;;;;;4.15;1.77;;;;;;;12.67;100.00;100256.63;4994212;28;20022;-82
2023/07/05 02:54:51;;;;;;;4.40;2.07;;;;;;;12.64;100.00;100257.94;4976768;28;20483;-82
2023/07/05 02:57:16;;;;;;;3.80;1.90;;;;;;;12.58;100.00;100264.34;4977037;28;20035;-82
2023/07/05 02:59:42;;;;;;;6.90;2.23;;;;;;;12.58;100.00;100255.38;4960612;28;20030;-82
2023/07/05 03:02:10;;;;;;;5.03;2.55;;;;;;;12.53;100.00;100241.66;4994419;28;20033;-82
2023/07/05 03:04:36;;;;;;;4.93;2.17;;;;;;;12.48;100.00;100256.00;4976755;28;20502;-82
2023/07/05 03:07:02;;;;;;;2.75;2.20;;;;;;;12.46;100.00;100266.31;4994025;28;20113;-82
2023/07/05 03:09:27;;;;;;;4.13;2.07;;;;;;;12.38;100.00;100264.75;4960820;28;20461;-82
2023/07/05 03:11:53;;;;;;;5.73;2.50;;;;;;;12.35;100.00;100270.69;4976657;28;20026;-82
2023/07/05 03:14:18;;;;;;;5.40;2.60;;;;;;;12.30;100.00;100265.16;4994025;28;20034;-82
2023/07/05 03:16:44;;;;;;;6.13;2.88;;;;;;;12.28;100.00;100259.13;4994289;28;20027;-82
2023/07/05 03:19:09;;;;;;;7.50;2.77;;;;;;;12.28;100.00;100272.72;4976700;28;20169;-82
2023/07/05 03:21:34;;;;;;;4.83;2.60;;;;;;;12.33;100.00;100252.94;4976387;28;20038;-82
2023/07/05 03:24:00;;;;;;;6.47;2.90;;;;;;;12.31;100.00;100258.63;4997467;28;20405;-82
2023/07/05 03:26:25;;;;;;;6.63;2.70;;;;;;;12.28;100.00;100254.53;4964253;28;20508;-82
2023/07/05 03:28:51;;;;;;;5.65;2.88;;;;;;;12.32;100.00;100251.31;4964321;28;20030;-82
2023/07/05 03:31:17;;;;;;;4.80;2.70;;;;;;;12.33;100.00;100253.81;4996830;28;20081;-82
2023/07/05 03:33:43;;;;;;;11.38;3.03;;;;;;;12.36;100.00;100256.03;4997385;28;20480;-83
2023/07/05 03:36:15;;;;;;;4.97;2.58;;;;;;;12.38;100.00;100250.34;4996551;28;20502;-82
2023/07/05 03:38:44;;;;;;;6.53;3.10;;;;;;;12.41;100.00;100267.00;4980752;28;20033;-82
2023/07/05 03:41:14;;;;;;;8.37;3.07;;;;;;;12.43;100.00;100262.16;4997242;28;20038;-83
2023/07/05 03:43:43;;;;;;;4.88;3.42;;;;;;;12.43;100.00;100273.03;4997455;28;20479;-83
2023/07/05 03:46:11;;;;;;;5.85;2.95;;;;;;;12.42;100.00;100260.50;4979895;28;20054;-83
2023/07/05 03:48:42;;;;;;;5.95;3.33;;;;;;;12.44;100.00;100268.41;4997381;28;20031;-82
2023/07/05 03:51:13;;;;;;;4.65;2.90;;;;;;;12.43;100.00;100273.03;4997377;28;20089;-82
2023/07/05 03:53:38;;;;;;;6.30;3.07;;;;;;;12.42;100.00;100268.66;4979829;28;20089;-83
2023/07/05 03:56:07;;;;;;;6.53;3.05;;;;;;;12.46;100.00;100275.28;4995629;28;20042;-83
2023/07/05 03:58:32;;;;;;;6.43;3.08;;;;;;;12.44;100.00;100258.34;4963868;28;20077;-83
2023/07/05 04:01:07;;;;;;;6.60;3.67;;;;;;;12.50;100.00;100248.41;4963556;28;20038;-83
2023/07/05 04:03:33;;;;;;;6.18;3.30;;;;;;;12.52;100.00;100254.44;4979325;28;20054;-83
2023/07/05 04:05:58;;;;;;;6.20;3.20;;;;;;;12.50;100.00;100244.88;4979800;28;20041;-83
2023/07/05 04:08:24;;;;;;;5.28;3.22;;;;;;;12.46;100.00;100244.53;4996507;28;20218;-83
2023/07/05 04:10:49;;;;;;;5.10;3.10;;;;;;;12.46;100.00;100253.50;4997208;28;20117;-83
2023/07/05 04:13:15;;;;;;;5.63;3.03;;;;;;;12.52;100.00;100249.00;4963488;28;20460;-82
2023/07/05 04:15:40;;;;;;;6.53;3.27;;;;;;;12.54;100.00;100256.91;4996629;28;20088;-82
2023/07/05 04:18:06;;;;;;;5.68;3.20;;;;;;;12.59;100.00;100268.72;4978935;28;20049;-83
2023/07/05 04:20:31;;;;;;;6.90;3.23;;;;;;;12.63;100.00;100275.31;4979294;28;20030;-83
2023/07/05 04:22:59;;;;;;;6.47;3.00;;;;;;;12.68;100.00;100244.69;4979402;28;20034;-83
2023/07/05 04:25:24;;;;;;;6.33;3.23;;;;;;;12.73;100.00;100263.81;4963437;28;20316;-82
2023/07/05 04:27:50;;;;;;;6.82;3.63;;;;;;;12.76;100.00;100262.50;4963073;28;20034;-83
2023/07/05 04:30:15;;;;;;;6.67;3.23;;;;;;;12.80;100.00;100266.41;4962688;28;20041;-83
2023/07/05 04:32:40;;;;;;;6.00;3.00;;;;;;;12.85;100.00;100260.22;4979833;28;20054;-82
2023/07/05 04:35:06;;;;;;;7.90;3.30;;;;;;;12.87;100.00;100260.78;4978235;28;20034;-83
2023/07/05 04:37:32;;;;;;;6.10;3.33;;;;;;;12.93;100.00;100265.25;4946463;28;20030;-83
2023/07/05 04:39:57;;;;;;;6.00;3.07;;;;;;;12.96;100.00;100268.31;4979120;28;20072;-83
2023/07/05 04:42:22;;;;;;;7.03;2.93;;;;;;;13.00;100.00;100263.19;4962881;28;20062;-83
2023/07/05 04:44:48;;;;;;;8.07;3.10;;;;;;;13.05;100.00;100268.75;4995618;28;20030;-83
2023/07/05 04:47:13;;;;;;;6.20;2.87;;;;;;;13.08;100.00;100264.69;4963088;28;20041;-83
2023/07/05 04:49:39;;;;;;;7.15;2.75;;;;;;;13.09;100.00;100266.34;4979131;28;20125;-83
2023/07/05 04:52:05;;;;;;;8.83;2.90;;;;;;;13.19;100.00;100260.25;4962787;28;20049;-84
2023/07/05 04:54:30;;;;;;;6.68;2.80;;;;;;;13.15;100.00;100278.97;4962279;28;20124;-83
2023/07/05 04:56:55;;;;;;;8.43;3.07;;;;;;;13.20;100.00;100259.16;4978640;28;20092;-83
2023/07/05 04:59:23;;;;;;;5.20;2.73;;;;;;;13.21;100.00;100272.53;4979198;28;20435;-82
2023/07/05 05:01:48;;;;;;;6.22;2.88;;;;;;;13.21;100.00;100272.53;4962677;28;20483;-83
2023/07/05 05:04:14;;;;;;;7.30;3.20;;;;;;;13.21;100.00;100263.53;4975107;28;20224;-83
2023/07/05 05:06:39;;;;;;;4.57;2.53;;;;;;;13.23;100.00;100284.03;4959510;28;20038;-83
2023/07/05 05:09:05;;;;;;;6.63;3.00;;;;;;;13.33;100.00;100283.34;4974787;28;20384;-83
2023/07/05 05:11:30;;;;;;;8.20;3.10;;;;;;;13.37;100.00;100278.28;4959550;28;20037;-83
2023/07/05 05:13:57;;;;;;;5.10;3.07;;;;;;;13.34;100.00;100287.75;4976408;28;20034;-82
2023/07/05 05:16:22;;;;;;;7.65;2.95;;;;;;;13.33;100.00;100273.28;4974925;28;20027;-83
2023/07/05 05:18:48;;;;;;;6.30;2.60;;;;;;;13.30;100.00;100298.31;4959045;28;20038;-83
2023/07/05 05:21:14;;;;;;;4.20;2.53;;;;;;;13.35;100.00;100273.06;4959198;28;20030;-83
2023/07/05 05:23:42;;;;;;;6.72;3.15;;;;;;;13.33;100.00;100277.91;4991107;28;20073;-83
2023/07/05 05:26:07;;;;;;;7.70;2.90;;;;;;;13.35;100.00;100286.69;4975214;28;20488;-83
2023/07/05 05:28:33;;;;;;;4.93;2.87;;;;;;;13.38;100.00;100294.38;4975129;28;20081;-89
2023/07/05 05:31:04;;;;;;;6.60;2.77;;;;;;;13.42;100.00;100275.63;4974441;28;20027;-85
2023/07/05 05:33:30;;;;;;;9.25;2.83;;;;;;;13.36;100.00;100284.78;4974574;28;20027;-85
2023/07/05 05:35:55;;;;;;;7.77;2.93;;;;;;;13.38;100.00;100291.66;4991545;28;20034;-83
2023/07/05 05:38:20;;;;;;;6.07;2.60;;;;;;;13.36;100.00;100282.91;4974392;28;20031;-84
2023/07/05 05:40:48;;;;;;;6.20;2.70;;;;;;;13.33;100.00;100289.63;4990745;28;20650;-84
2023/07/05 05:43:14;;;;;;;7.18;2.50;;;;;;;13.35;100.00;100277.72;4974612;28;20548;-84
2023/07/05 05:45:44;;;;;;;5.93;2.60;;;;;;;13.39;100.00;100297.91;4958633;28;20031;-84
2023/07/05 05:48:10;;;;;;;6.28;2.42;;;;;;;13.37;100.00;100290.00;4990291;28;20116;-85
2023/07/05 05:50:35;;;;;;;4.32;2.40;;;;;;;13.05;100.00;100325.94;4990718;28;20080;-86
2023/07/05 05:53:02;;;;;;;4.10;2.80;;;;;;;13.05;100.00;100306.03;4990843;28;20039;-85
2023/07/05 05:55:27;;;;;;;3.35;2.08;;;;;;;13.27;100.00;100300.69;4975372;28;20027;-85
2023/07/05 05:57:55;;;;;;;4.17;2.40;;;;;;;13.32;100.00;100298.88;4973953;28;20058;-84
2023/07/05 06:00:23;;;;;;;6.40;2.60;;;;;;;13.42;100.00;100295.53;4990312;28;20030;-84
2023/07/05 06:02:49;;;;;;;7.85;2.55;;;;;;;13.41;100.00;100317.59;4974145;28;20030;-83
2023/07/05 06:05:15;;;;;;;4.30;2.37;;;;;;;13.03;100.00;100330.78;4989841;28;20053;-84
2023/07/05 06:07:43;;;;;;;6.80;2.40;;;;;;;12.77;100.00;100329.47;4942832;28;20475;-83
2023/07/05 06:10:09;;;;;;;3.35;2.42;;;;;;;12.88;100.00;100339.50;4974576;28;20035;-83
2023/07/05 06:12:40;;;;;;;4.72;2.30;;;;;;;13.16;100.00;100341.38;4973590;28;20031;-83
2023/07/05 06:15:06;;;;;;;4.10;2.33;;;;;;;13.11;100.00;100335.84;4958293;28;20043;-87
2023/07/05 06:17:32;;;;;;;7.43;2.20;;;;;;;12.79;100.00;100335.50;4973446;28;20022;-86
2023/07/05 06:19:57;;;;;;;4.07;2.27;;;;;;;12.72;100.00;100338.38;4974718;28;20538;-86
2023/07/05 06:22:33;;;;;;;7.05;2.45;;;;;;;12.56;100.00;100339.97;4957432;28;20033;-87
2023/07/05 06:24:58;;;;;;;3.90;1.90;;;;;;;12.53;100.00;100350.50;4973847;28;20038;-86
2023/07/05 06:27:24;;;;;;;8.95;2.60;;;;;;;12.85;100.00;100348.16;4973445;28;20031;-85
2023/07/05 06:29:52;;;;;;;3.87;1.70;;;;;;;13.08;100.00;100360.00;4973152;28;20497;-85
2023/07/05 06:32:18;;;;;;;3.03;1.98;;;;;;;13.23;100.00;100348.56;4974348;28;20031;-85
2023/07/05 06:34:43;;;;;;;4.57;1.93;;;;;;;13.39;100.00;100376.94;4973142;28;20087;-85
2023/07/05 06:37:11;;;;;;;3.57;1.80;;;;;;;13.54;99.95;100349.97;4957218;28;20035;-85
2023/07/05 06:39:37;;;;;;;5.25;1.83;;;;;;;13.69;98.56;100363.00;4973356;28;20142;-85
2023/07/05 06:42:03;;;;;;;4.32;2.10;;;;;;;13.79;97.22;100357.72;4990457;28;20133;-85
2023/07/05 06:44:29;;;;;;;7.00;1.70;;;;;;;13.90;96.75;100372.31;4989376;28;20038;-84
2023/07/05 06:46:56;;;;;;;3.93;2.27;;;;;;;13.96;95.69;100365.88;4975035;28;20411;-87
2023/07/05 06:49:22;;;;;;;5.63;1.50;;;;;;;14.04;93.48;100379.09;4957681;28;20137;-83
2023/07/05 06:51:47;;;;;;;3.90;2.00;;;;;;;14.08;93.47;100405.88;4973771;28;20054;-84
2023/07/05 06:54:16;;;;;;;3.07;2.10;;;;;;;14.10;93.90;100395.53;4973154;28;20055;-85
2023/07/05 06:56:42;;;;;;;3.17;1.67;;;;;;;14.11;93.10;100392.53;4957206;28;20081;-85
2023/07/05 06:59:07;;;;;;;5.05;1.85;;;;;;;14.20;92.68;100433.88;4977056;28;20031;-86
2023/07/05 07:01:33;;;;;;;3.63;1.50;;;;;;;14.21;91.55;100409.06;4977272;28;20034;-87
2023/07/05 07:03:58;;;;;;;5.30;2.13;;;;;;;14.29;89.91;100401.53;4977009;28;20501;-86
2023/07/05 07:06:26;;;;;;;5.68;1.50;;;;;;;14.38;90.50;100410.97;4977315;28;20039;-86
2023/07/05 07:08:54;;;;;;;2.83;1.63;;;;;;;14.41;88.39;100409.63;4978199;28;20031;-86
2023/07/05 07:11:22;;;;;;;2.10;1.50;;;;;;;14.34;88.05;100429.72;4977049;28;20038;-86
2023/07/05 07:13:48;;;;;;;6.07;1.70;;;;;;;14.46;88.01;100420.63;4978380;28;20027;-86
2023/07/05 07:16:15;;;;;;;4.30;1.60;;;;;;;14.45;88.56;100427.16;4993113;28;20431;-86
2023/07/05 07:18:45;;;;;;;3.60;1.30;;;;;;;14.36;89.88;100437.66;4978533;28;20030;-86
2023/07/05 07:21:12;;;;;;;4.35;1.50;;;;;;;14.08;93.11;100435.88;4976687;28;20031;-87
2023/07/05 07:23:38;;;;;;;4.20;1.80;;;;;;;13.53;100.00;100432.78;4976462;28;20054;-86
2023/07/05 07:26:07;;;;;;;3.95;1.63;;;;;;;13.10;100.00;100450.47;4993093;28;20491;-84
2023/07/05 07:28:32;;;;;;;6.27;2.27;;;;;;;12.64;100.00;100453.88;4977210;28;20023;-84
2023/07/05 07:30:58;;;;;;;8.30;2.17;;;;;;;12.34;100.00;100474.97;4977176;28;20467;-85
2023/07/05 07:33:26;;;;;;;3.43;1.90;;;;;;;12.06;100.00;100462.88;4977804;28;20061;-84
2023/07/05 07:35:52;;;;;;;6.97;2.35;;;;;;;11.92;100.00;100465.78;4961439;28;20117;-83
2023/07/05 07:38:17;;;;;;;5.97;2.50;;;;;;;11.63;100.00;100489.22;4944606;28;20150;-83
2023/07/05 07:40:43;;;;;;;3.53;2.10;;;;;;;11.50;100.00;100482.09;4944720;28;20026;-82
2023/07/05 07:43:12;;;;;;;13.70;2.92;;;;;;;11.48;100.00;100481.50;4992644;28;20399;-84
2023/07/05 07:45:37;;;;;;;8.25;2.85;;;;;;;11.50;100.00;100490.25;4992450;28;20133;-84
2023/07/05 07:48:03;;;;;;;6.23;3.00;;;;;;;11.49;100.00;100498.63;4992888;28;20451;-83
2023/07/05 07:50:28;;;;;;;4.93;3.40;;;;;;;11.45;100.00;100514.56;4976759;28;20035;-83
2023/07/05 07:52:54;;;;;;;8.98;3.65;;;;;;;11.50;100.00;100509.28;4977585;28;20033;-83
2023/07/05 07:55:20;;;;;;;7.43;3.90;;;;;;;11.53;100.00;100503.38;4976150;28;20035;-83
2023/07/05 07:57:45;;;;;;;5.22;2.72;;;;;;;11.50;100.00;100497.56;4977393;28;20474;-84
2023/07/05 08:00:11;;;;;;;9.47;3.30;;;;;;;11.43;100.00;100519.41;4976324;28;20039;-83
2023/07/05 08:02:37;;;;;;;8.73;3.40;;;;;;;11.39;100.00;100524.44;4944314;28;20089;-83
2023/07/05 08:05:11;;;;;;;8.35;4.07;;;;;;;11.37;100.00;100512.97;4976498;28;20055;-82
2023/07/05 08:07:37;;;;;;;7.65;3.72;;;;;;;11.33;100.00;100513.69;4977911;28;20035;-82
2023/07/05 08:10:02;;;;;;;8.50;3.43;;;;;;;11.31;100.00;100513.91;4975091;28;20082;-82
2023/07/05 08:12:28;;;;;;;5.67;3.47;;;;;;;11.33;100.00;100521.81;4976640;28;20122;-82
2023/07/05 08:14:53;;;;;;;9.93;4.17;;;;;;;11.50;100.00;100519.28;4976085;28;20082;-82
2023/07/05 08:17:20;;;;;;;8.38;3.60;;;;;;;11.69;100.00;100539.09;4943970;28;20027;-82
2023/07/05 08:19:45;;;;;;;9.30;4.20;;;;;;;11.89;100.00;100552.41;4992436;28;20391;-82
2023/07/05 08:22:11;;;;;;;4.80;3.55;;;;;;;11.99;100.00;100550.00;4977308;28;20038;-82
2023/07/05 08:24:36;;;;;;;7.90;4.30;;;;;;;12.26;100.00;100525.09;4975958;28;20037;-82
2023/07/05 08:27:02;;;;;;;8.90;3.60;;;;;;;12.58;100.00;100538.41;4975641;28;20031;-82
2023/07/05 08:29:27;;;;;;;6.82;3.17;;;;;;;12.85;100.00;100548.81;4975558;28;20038;-82
2023/07/05 08:31:52;;;;;;;6.33;3.07;;;;;;;13.21;100.00;100553.09;4943740;28;20034;-82
2023/07/05 08:34:18;;;;;;;7.23;2.90;;;;;;;13.49;100.00;100563.28;4976040;28;20398;-82
2023/07/05 08:36:43;;;;;;;6.80;3.40;;;;;;;13.77;100.00;100552.63;4992006;28;20030;-82
2023/07/05 08:39:11;;;;;;;9.50;3.70;;;;;;;14.02;100.00;100555.84;4975988;28;20046;-83
2023/07/05 08:41:43;;;;;;;9.07;3.20;;;;;;;14.29;100.00;100574.28;4976949;28;20039;-82
2023/07/05 08:44:45;;;;;;;7.90;3.60;;;;;;;14.41;100.00;100584.28;4976930;28;20035;-82
2023/07/05 08:47:49;;;;;;;6.40;3.10;;;;;;;14.33;100.00;100580.88;4975460;28;20034;-83
2023/07/05 08:50:42;;;;;;;8.75;3.35;;;;;;;14.39;100.00;100584.53;4968653;28;20047;-82
2023/07/05 08:53:19;;;;;;;7.20;3.17;;;;;;;14.30;100.00;100586.84;4968372;28;20042;-83
2023/07/05 08:56:06;;;;;;;6.60;3.40;;;;;;;14.32;100.00;100597.50;4992142;28;20371;-83
2023/07/05 08:58:40;;;;;;;5.53;2.80;;;;;;;14.47;100.00;100596.97;4976846;28;20030;-83
2023/07/05 09:01:33;;;;;;;6.80;3.00;;;;;;;14.64;100.00;100616.91;4975170;28;20109;-83
2023/07/05 09:03:58;;;;;;;6.70;2.85;;;;;;;14.88;100.00;100628.50;4991012;28;20498;-83
2023/07/05 09:06:32;;;;;;;10.30;3.53;;;;;;;14.98;97.63;100603.25;4975686;28;20031;-84
2023/07/05 09:09:16;;;;;;;6.63;2.72;;;;;;;15.18;98.19;100616.38;4975952;28;20082;-83
2023/07/05 09:12:29;;;;;;;6.70;2.95;;;;;;;15.37;93.35;100627.03;4975002;28;20046;-83
2023/07/05 09:15:17;;;;;;;4.50;2.20;;;;;;;15.44;89.13;100709.66;4897885;29;20149;-83
2023/07/05 09:17:45;;;;;;;8.18;2.88;;;;;;;15.44;89.87;100633.97;4881621;29;20024;-84
2023/07/05 09:20:55;;;;;;;4.40;1.97;;;;;;;15.63;89.88;100665.63;4946924;28;20050;-84
2023/07/05 09:23:39;;;;;;;4.72;2.30;;;;;;;15.66;88.60;100644.06;4955883;28;20077;-84
2023/07/05 09:26:21;;;;;;;10.40;3.15;;;;;;;15.53;88.02;100667.16;4976422;28;20035;-84
2023/07/05 09:29:03;;;;;;;5.68;2.45;;;;;;;15.64;87.45;100670.03;4976010;28;20531;-84
2023/07/05 09:31:28;;;;;;;11.35;2.60;;;;;;;15.87;83.88;100636.97;4975646;28;20446;-84
2023/07/05 09:34:18;;;;;;;6.47;2.23;;;;;;;16.15;82.87;100659.72;4958693;28;20134;-83
2023/07/05 09:36:43;;;;;;;9.55;2.40;;;;;;;16.42;81.27;100646.03;4964275;28;20043;-83
2023/07/05 09:39:38;;;;;;;7.27;2.20;;;;;;;16.73;81.49;100661.94;4975621;28;20038;-84
2023/07/05 09:42:11;;;;;;;6.38;1.70;;;;;;;17.04;76.55;100651.19;4976676;28;20031;-83
2023/07/05 09:44:36;;;;;;;5.95;2.00;;;;;;;17.07;74.75;100687.16;4975839;28;20107;-83
2023/07/05 09:47:02;;;;;;;9.60;1.80;;;;;;;17.01;72.59;100704.66;4974771;28;20122;-83
2023/07/05 09:49:28;;;;;;;8.30;1.70;;;;;;;16.97;70.68;100676.91;4974686;28;20134;-83
2023/07/05 09:51:54;;;;;;;5.72;1.55;;;;;;;17.11;73.01;100712.09;4974803;28;20471;-84
2023/07/05 09:54:30;;;;;;;8.48;1.58;;;;;;;17.26;71.71;100690.31;4991131;28;20038;-83
2023/07/05 09:57:04;;;;;;;7.10;1.50;;;;;;;17.39;66.95;100680.78;4973865;28;20039;-83
2023/07/05 09:59:31;;;;;;;7.75;1.75;;;;;;;17.50;67.94;100728.28;4991227;28;20031;-83
2023/07/05 10:02:24;;;;;;;7.90;1.70;;;;;;;17.52;71.47;100701.41;4975331;28;20109;-83
2023/07/05 10:04:58;;;;;;;7.63;1.25;;;;;;;17.65;67.71;100719.31;4964441;28;20063;-84
2023/07/05 10:07:29;;;;;;;4.80;1.38;;;;;;;17.84;66.66;100719.69;4974222;28;20038;-83
2023/07/05 10:10:03;;;;;;;5.28;1.35;;;;;;;18.01;64.82;100794.47;4973922;28;20117;-84
2023/07/05 10:12:40;;;;;;;3.85;1.42;;;;;;;18.00;65.89;100726.94;4990142;28;20041;-84
2023/07/05 10:15:23;;;;;;;5.70;1.30;;;;;;;18.08;63.42;100744.00;4974897;28;20043;-84
2023/07/05 10:17:51;;;;;;;7.35;1.42;;;;;;;18.04;62.68;100728.06;4973638;28;20026;-84
2023/07/05 10:20:28;;;;;;;4.55;1.20;;;;;;;18.16;63.89;100773.66;4974211;28;20043;-84
2023/07/05 10:22:59;;;;;;;4.65;1.20;;;;;;;18.14;62.51;100773.13;4973849;28;20034;-84
2023/07/05 10:25:30;;;;;;;4.00;1.40;;;;;;;18.14;61.40;100737.41;4975260;28;20069;-84
2023/07/05 10:27:59;;;;;;;6.83;1.40;;;;;;;18.26;61.31;100754.47;4990157;28;20130;-84
2023/07/05 10:30:26;;;;;;;5.95;1.17;;;;;;;18.48;62.57;100753.47;4957849;28;20035;-85
2023/07/05 10:33:20;;;;;;;9.98;1.75;;;;;;;18.49;59.68;100760.59;4989455;28;20235;-85
2023/07/05 10:35:53;;;;;;;6.63;1.23;;;;;;;18.54;58.87;100755.13;4990100;28;20078;-84
2023/07/05 10:38:27;;;;;;;5.70;1.40;;;;;;;18.65;60.13;100770.53;4990413;28;20353;-84
2023/07/05 10:40:57;;;;;;;3.73;1.37;;;;;;;18.66;60.26;100761.22;4973752;28;20031;-85
2023/07/05 10:43:23;;;;;;;4.45;1.17;;;;;;;18.73;57.49;100777.41;4989996;28;20078;-85
2023/07/05 10:45:49;;;;;;;3.92;1.20;;;;;;;18.56;56.12;100788.66;4957809;28;20042;-85
2023/07/05 10:48:40;;;;;;;5.72;1.23;;;;;;;18.61;55.05;100799.66;4941571;28;20418;-85
2023/07/05 10:51:15;;;;;;;4.97;1.10;;;;;;;18.72;54.92;100792.25;4973788;28;20030;-85
2023/07/05 10:53:42;;;;;;;5.05;1.27;;;;;;;18.68;54.60;100780.97;4974710;28;20031;-86
2023/07/05 10:56:16;;;;;;;4.82;1.48;;;;;;;18.99;56.43;100803.06;4973710;28;20038;-85
2023/07/05 10:58:53;;;;;;;2.33;0.90;;;;;;;18.94;55.07;100786.53;4973772;28;20447;-85
2023/07/05 11:01:24;;;;;;;7.78;1.20;;;;;;;19.05;55.58;100803.91;4973354;28;20041;-85
2023/07/05 11:04:16;;;;;;;5.13;1.53;;;;;;;19.03;55.55;100797.81;4979465;28;20046;-85
2023/07/05 11:06:43;;;;;;;2.60;1.30;;;;;;;19.18;53.89;100799.78;4994109;28;20038;-85
2023/07/05 11:09:10;;;;;;;4.43;1.30;;;;;;;18.93;54.66;100818.72;4992341;28;20032;-85
2023/07/05 11:11:53;;;;;;;8.10;1.20;;;;;;;18.85;55.71;100843.13;4992478;28;20034;-85
2023/07/05 11:14:21;;;;;;;2.85;1.05;;;;;;;19.06;54.34;100833.88;4992823;28;20042;-85
2023/07/05 11:16:47;;;;;;;3.27;0.87;;;;;;;19.03;54.06;100861.06;4975894;28;20490;-85
2023/07/05 11:19:15;;;;;;;5.43;1.25;;;;;;;19.06;51.91;100849.50;4992773;28;20482;-85
2023/07/05 11:21:49;;;;;;;4.15;1.25;;;;;;;19.37;52.94;100811.88;4992702;28;20073;-85
2023/07/05 11:24:36;;;;;;;6.25;1.88;;;;;;;19.88;50.99;100826.72;4992502;28;20030;-85
2023/07/05 11:27:30;;;;;;;5.28;1.23;;;;;;;21.17;49.39;100811.25;4976285;28;20125;-85
2023/07/05 11:29:58;;;;;;;11.53;1.30;;;;;;;22.42;44.61;100839.31;4976409;28;20080;-85
2023/07/05 11:32:47;;;;;;;3.25;1.40;;;;;;;22.84;44.08;100828.53;4992180;28;20034;-85